createdAt,value
2022-11-04T00:01:28.919Z,98456.63
2022-11-04T00:03:56.561Z,98456.69
2022-11-04T00:06:25.779Z,98453.31
2022-11-04T00:08:53.668Z,98466.56
2022-11-04T00:11:39.188Z,98434.25
2022-11-04T00:14:07.383Z,98460.56
2022-11-04T00:16:52.516Z,98467.75
2022-11-04T00:19:20.372Z,98471.50
2022-11-04T00:22:08.144Z,98476.88
2022-11-04T00:24:53.608Z,98479.75
2022-11-04T00:27:39.716Z,98492.56
2022-11-04T00:30:09.503Z,98497.13
2022-11-04T00:32:54.768Z,98499.13
2022-11-04T00:35:22.589Z,98500.91
2022-11-04T00:37:51.797Z,98504.53
2022-11-04T00:40:19.742Z,98459.06
2022-11-04T00:42:47.536Z,98510.66
2022-11-04T00:45:15.277Z,98513.19
2022-11-04T00:47:42.976Z,98521.06
2022-11-04T00:50:10.986Z,98512.41
2022-11-04T00:52:38.656Z,98519.34
2022-11-04T00:55:08.979Z,98523.41
2022-11-04T00:57:36.640Z,98523.34
2022-11-04T01:00:05.137Z,98509.47
2022-11-04T01:02:32.877Z,98532.72
2022-11-04T01:05:00.692Z,98538.59
2022-11-04T01:07:28.324Z,98547.13
2022-11-04T01:09:56.196Z,98554.91
2022-11-04T01:12:25.380Z,98560.97
2022-11-04T01:14:53.032Z,98564.25
2022-11-04T01:17:20.802Z,98564.06
2022-11-04T01:19:48.417Z,98568.50
2022-11-04T01:22:16.185Z,98562.31
2022-11-04T01:24:43.797Z,98559.81
2022-11-04T01:27:11.486Z,98565.13
2022-11-04T01:29:40.557Z,98577.34
2022-11-04T01:32:08.514Z,98574.66
2022-11-04T01:34:42.243Z,98551.72
2022-11-04T01:37:11.414Z,98576.47
2022-11-04T01:39:39.053Z,98585.28
2022-11-04T01:42:06.791Z,98583.56
2022-11-04T01:45:02.972Z,98582.72
2022-11-04T01:47:33.579Z,98580.28
2022-11-04T01:50:09.388Z,98584.59
2022-11-04T01:52:38.578Z,98581.00
2022-11-04T01:55:09.330Z,98588.91
2022-11-04T01:57:43.387Z,98597.56
2022-11-04T02:00:40.781Z,98600.13
2022-11-04T02:03:10.065Z,98600.03
2022-11-04T02:05:38.058Z,98585.22
2022-11-04T02:08:33.319Z,98593.06
2022-11-04T02:11:01.712Z,98594.16
2022-11-04T02:13:28.575Z,98593.41
2022-11-04T02:16:00.207Z,98597.97
2022-11-04T02:18:37.786Z,98603.16
2022-11-04T02:21:41.784Z,98599.56
2022-11-04T02:24:41.319Z,98593.50
2022-11-04T02:27:17.793Z,98591.13
2022-11-04T02:29:52.099Z,98588.53
2022-11-04T02:32:21.073Z,98585.13
2022-11-04T02:34:54.091Z,98586.84
2022-11-04T02:37:26.545Z,98580.84
2022-11-04T02:39:56.319Z,98578.16
2022-11-04T02:42:27.635Z,98578.94
2022-11-04T02:45:01.182Z,98578.00
2022-11-04T02:47:29.863Z,98584.09
2022-11-04T02:49:59.438Z,98580.84
2022-11-04T02:52:28.630Z,98582.66
2022-11-04T02:54:59.516Z,98581.06
2022-11-04T02:57:28.484Z,98576.03
2022-11-04T02:59:58.169Z,98586.75
2022-11-04T03:02:28.307Z,98580.97
2022-11-04T03:04:55.989Z,98586.25
2022-11-04T03:07:25.132Z,98591.84
2022-11-04T03:09:54.596Z,98596.38
2022-11-04T03:12:24.401Z,98577.66
2022-11-04T03:14:53.422Z,98590.78
2022-11-04T03:17:23.829Z,98533.31
2022-11-04T03:19:54.454Z,98592.13
2022-11-04T03:22:23.109Z,98579.25
2022-11-04T03:24:51.370Z,98598.47
2022-11-04T03:27:23.318Z,98584.88
2022-11-04T03:29:54.653Z,98600.53
2022-11-04T03:32:25.362Z,98600.69
2022-11-04T03:34:54.409Z,98598.22
2022-11-04T03:37:22.067Z,98600.03
2022-11-04T03:39:49.764Z,98597.56
2022-11-04T03:42:23.178Z,98591.56
2022-11-04T03:44:51.680Z,98591.97
2022-11-04T03:47:20.732Z,98602.19
2022-11-04T03:49:50.114Z,98571.53
2022-11-04T03:52:17.755Z,98600.59
2022-11-04T03:54:45.457Z,98596.28
2022-11-04T03:57:23.213Z,98599.88
2022-11-04T04:00:11.457Z,98599.94
2022-11-04T04:02:44.105Z,98575.59
2022-11-04T04:05:17.779Z,98557.56
2022-11-04T04:07:49.604Z,98614.25
2022-11-04T04:10:35.856Z,98604.56
2022-11-04T04:13:37.666Z,98607.25
2022-11-04T04:16:08.256Z,98594.38
2022-11-04T04:18:37.747Z,98573.69
2022-11-04T04:21:09.146Z,98584.03
2022-11-04T04:23:54.070Z,98597.63
2022-11-04T04:26:39.574Z,98603.78
2022-11-04T04:29:07.220Z,98599.47
2022-11-04T04:31:50.410Z,98600.38
2022-11-04T04:34:18.745Z,98603.97
2022-11-04T04:36:50.199Z,98606.59
2022-11-04T04:39:38.023Z,98613.66
2022-11-04T04:42:23.738Z,98618.09
2022-11-04T04:45:06.684Z,98625.13
2022-11-04T04:47:44.797Z,98618.19
2022-11-04T04:50:14.015Z,98625.13
2022-11-04T04:52:45.633Z,98625.13
2022-11-04T04:55:13.562Z,98637.25
2022-11-04T04:57:41.429Z,98632.81
2022-11-04T05:00:10.780Z,98626.75
2022-11-04T05:02:38.718Z,98639.53
2022-11-04T05:05:07.413Z,98629.72
2022-11-04T05:07:35.091Z,98640.03
2022-11-04T05:10:04.331Z,98631.16
2022-11-04T05:12:52.186Z,98642.31
2022-11-04T05:15:19.938Z,98638.81
2022-11-04T05:17:47.639Z,98636.22
2022-11-04T05:20:15.510Z,98629.31
2022-11-04T05:22:43.189Z,98641.63
2022-11-04T05:25:12.379Z,98642.66
2022-11-04T05:27:40.124Z,98642.81
2022-11-04T05:30:09.808Z,98643.81
2022-11-04T05:32:37.491Z,98651.06
2022-11-04T05:35:05.761Z,98652.97
2022-11-04T05:37:33.458Z,98599.09
2022-11-04T05:40:01.147Z,98655.72
2022-11-04T05:42:30.603Z,98652.44
2022-11-04T05:44:58.429Z,98661.97
2022-11-04T05:47:26.320Z,98414.00
2022-11-04T05:49:54.139Z,98383.53
2022-11-04T05:52:21.874Z,98631.31
2022-11-04T05:54:52.492Z,98376.09
2022-11-04T05:57:20.945Z,98664.41
2022-11-04T05:59:50.198Z,98678.28
2022-11-04T06:02:18.122Z,98609.94
2022-11-04T06:04:45.955Z,98514.84
2022-11-04T06:07:13.799Z,98763.78
2022-11-04T06:09:41.682Z,98338.56
2022-11-04T06:12:09.914Z,98460.47
2022-11-04T06:14:37.797Z,98664.75
2022-11-04T06:17:06.880Z,98682.19
2022-11-04T06:19:34.727Z,98682.94
2022-11-04T06:22:03.891Z,98668.28
2022-11-04T06:24:31.689Z,98685.44
2022-11-04T06:27:00.740Z,98693.34
2022-11-04T06:29:30.333Z,98682.00
2022-11-04T06:31:58.300Z,98691.34
2022-11-04T06:34:27.827Z,98703.53
2022-11-04T06:36:55.508Z,98704.25
2022-11-04T06:39:23.237Z,98704.13
2022-11-04T06:41:51.818Z,98713.59
2022-11-04T06:44:20.354Z,98684.63
2022-11-04T06:46:47.996Z,98711.81
2022-11-04T06:49:17.570Z,98711.84
2022-11-04T06:51:46.677Z,98719.63
2022-11-04T06:54:14.895Z,98686.97
2022-11-04T06:56:42.547Z,98727.16
2022-11-04T06:59:10.843Z,98715.03
2022-11-04T07:01:38.752Z,98735.69
2022-11-04T07:04:15.544Z,98734.66
2022-11-04T07:06:44.316Z,98734.53
2022-11-04T07:09:14.554Z,98723.25
2022-11-04T07:11:42.398Z,98726.28
2022-11-04T07:14:10.186Z,98739.56
2022-11-04T07:16:38.020Z,98746.50
2022-11-04T07:19:05.942Z,98747.19
2022-11-04T07:21:35.141Z,98752.25
2022-11-04T07:24:03.060Z,98783.66
2022-11-04T07:26:32.077Z,98759.44
2022-11-04T07:29:01.103Z,98778.81
2022-11-04T07:31:28.900Z,98770.94
2022-11-04T07:33:57.736Z,98777.22
2022-11-04T07:36:25.444Z,98761.75
2022-11-04T07:38:53.818Z,98783.41
2022-11-04T07:41:21.526Z,98779.00
2022-11-04T07:43:51.506Z,98791.38
2022-11-04T07:46:19.325Z,98794.03
2022-11-04T07:48:47.195Z,98802.91
2022-11-04T07:51:16.570Z,98805.50
2022-11-04T07:53:44.400Z,98806.72
2022-11-04T07:56:12.608Z,98806.41
2022-11-04T07:58:40.492Z,98814.31
2022-11-04T08:01:10.762Z,98791.41
2022-11-04T08:03:38.650Z,98803.25
2022-11-04T08:06:07.597Z,98797.22
2022-11-04T08:08:35.481Z,98803.16
2022-11-04T08:11:04.303Z,98801.25
2022-11-04T08:13:32.592Z,98791.03
2022-11-04T08:16:02.650Z,98789.69
2022-11-04T08:18:31.891Z,98808.22
2022-11-04T08:20:59.683Z,98810.16
2022-11-04T08:23:27.471Z,98805.69
2022-11-04T08:25:55.180Z,98813.59
2022-11-04T08:28:24.184Z,98819.06
2022-11-04T08:30:55.590Z,98819.06
2022-11-04T08:33:23.420Z,98827.91
2022-11-04T08:35:52.433Z,98830.88
2022-11-04T08:38:21.215Z,98838.25
2022-11-04T08:40:48.959Z,98830.56
2022-11-04T08:43:16.734Z,98812.72
2022-11-04T08:45:45.823Z,98820.72
2022-11-04T08:48:13.555Z,98819.25
2022-11-04T08:50:41.283Z,98829.81
2022-11-04T08:53:10.923Z,98826.50
2022-11-04T08:55:39.234Z,98828.34
2022-11-04T08:58:07.205Z,98834.59
2022-11-04T09:00:36.444Z,98826.63
2022-11-04T09:03:04.589Z,98837.66
2022-11-04T09:05:32.382Z,98830.38
2022-11-04T09:08:01.104Z,98813.69
2022-11-04T09:10:30.147Z,98823.81
2022-11-04T09:12:57.853Z,98815.22
2022-11-04T09:15:25.547Z,98822.91
2022-11-04T09:17:53.213Z,98838.81
2022-11-04T09:20:20.923Z,98842.97
2022-11-04T09:22:50.394Z,98723.56
2022-11-04T09:25:18.171Z,98817.47
2022-11-04T09:27:47.219Z,98820.13
2022-11-04T09:30:15.222Z,98826.56
2022-11-04T09:32:43.073Z,98824.59
2022-11-04T09:35:12.979Z,98827.22
2022-11-04T09:37:40.812Z,98829.09
2022-11-04T09:40:11.236Z,98854.53
2022-11-04T09:42:45.026Z,98840.72
2022-11-04T09:45:21.554Z,98837.25
2022-11-04T09:47:51.528Z,98840.47
2022-11-04T09:50:21.848Z,98833.41
2022-11-04T09:52:51.674Z,98830.63
2022-11-04T09:55:21.964Z,98818.00
2022-11-04T09:57:52.451Z,98825.28
2022-11-04T10:00:23.174Z,98830.72
2022-11-04T10:02:56.008Z,98830.16
2022-11-04T10:05:35.036Z,98829.69
2022-11-04T10:08:24.833Z,98831.84
2022-11-04T10:10:55.337Z,98843.28
2022-11-04T10:13:27.257Z,98843.03
2022-11-04T10:16:12.042Z,98830.16
2022-11-04T10:19:03.445Z,98830.53
2022-11-04T10:21:37.177Z,98833.81
2022-11-04T10:24:10.778Z,98834.25
2022-11-04T10:26:42.817Z,98846.47
2022-11-04T10:29:17.613Z,98845.84
2022-11-04T10:31:46.763Z,98838.94
2022-11-04T10:34:21.362Z,98839.81
2022-11-04T10:36:49.207Z,98839.00
2022-11-04T10:39:19.380Z,98839.69
2022-11-04T10:41:47.586Z,98841.84
2022-11-04T10:44:17.750Z,98844.00
2022-11-04T10:46:51.103Z,98843.88
2022-11-04T10:49:39.715Z,98843.91
2022-11-04T10:52:07.513Z,98853.03
2022-11-04T10:54:37.369Z,98843.19
2022-11-04T10:57:05.356Z,98856.59
2022-11-04T10:59:38.660Z,98855.84
2022-11-04T11:02:08.117Z,98868.31
2022-11-04T11:04:36.763Z,98868.19
2022-11-04T11:07:08.529Z,98859.88
2022-11-04T11:09:36.654Z,98882.97
2022-11-04T11:12:29.550Z,98880.03
2022-11-04T11:14:54.433Z,98884.19
2022-11-04T11:17:25.036Z,98890.59
2022-11-04T11:19:56.694Z,98897.28
2022-11-04T11:22:39.837Z,98904.97
2022-11-04T11:25:22.733Z,98894.13
2022-11-04T11:27:51.069Z,98885.66
2022-11-04T11:30:23.289Z,98896.91
2022-11-04T11:32:55.809Z,98890.16
2022-11-04T11:35:24.774Z,98901.31
2022-11-04T11:37:52.465Z,98904.66
2022-11-04T11:40:27.644Z,98899.47
2022-11-04T11:42:55.725Z,98901.13
2022-11-04T11:45:24.409Z,98900.19
2022-11-04T11:47:54.974Z,98923.00
2022-11-04T11:50:32.548Z,98908.97
2022-11-04T11:53:15.773Z,98916.22
2022-11-04T11:55:45.475Z,98906.28
2022-11-04T12:01:12.031Z,98907.31
2022-11-04T12:09:34.689Z,98923.31
2022-11-04T12:12:10.060Z,98920.25
2022-11-04T12:14:49.379Z,98912.88
2022-11-04T12:17:24.660Z,98924.22
2022-11-04T12:20:03.872Z,98911.19
2022-11-04T12:22:36.800Z,98855.03
2022-11-04T12:25:09.882Z,98914.53
2022-11-04T12:27:39.830Z,98902.53
2022-11-04T12:30:10.344Z,98906.00
2022-11-04T12:32:44.446Z,98907.81
2022-11-04T12:35:35.415Z,98920.31
2022-11-04T12:38:13.082Z,98918.66
2022-11-04T12:40:43.451Z,98917.53
2022-11-04T12:43:19.527Z,98920.00
2022-11-04T12:45:55.267Z,98922.28
2022-11-04T12:48:32.293Z,98917.69
2022-11-04T12:51:02.833Z,98917.41
2022-11-04T12:53:45.216Z,98915.88
2022-11-04T12:56:13.291Z,98919.50
2022-11-04T12:58:48.843Z,98923.03
2022-11-04T13:01:18.355Z,98929.94
2022-11-04T13:03:50.352Z,98926.03
2022-11-04T13:06:18.958Z,98929.94
2022-11-04T13:08:50.875Z,98931.28
2022-11-04T13:11:26.782Z,98935.03
2022-11-04T13:14:05.199Z,98923.16
2022-11-04T13:16:34.811Z,98923.63
2022-11-04T13:19:03.052Z,98928.03
2022-11-04T13:21:33.245Z,98931.03
2022-11-04T13:24:05.045Z,98936.09
2022-11-04T13:26:32.765Z,98939.41
2022-11-04T13:29:07.521Z,98942.13
2022-11-04T13:31:42.560Z,98951.22
2022-11-04T13:34:13.672Z,98926.94
2022-11-04T13:36:43.026Z,98941.50
2022-11-04T13:39:17.703Z,98954.34
2022-11-04T13:42:04.661Z,98945.16
2022-11-04T13:44:35.583Z,98959.31
2022-11-04T13:47:05.200Z,98963.38
2022-11-04T13:49:34.296Z,98963.75
2022-11-04T13:52:03.136Z,98959.47
2022-11-04T13:54:32.973Z,98970.44
2022-11-04T13:57:08.259Z,98976.16
2022-11-04T13:59:36.168Z,98975.56
2022-11-04T14:02:26.784Z,98985.47
2022-11-04T14:04:55.685Z,98996.47
2022-11-04T14:07:55.113Z,98996.78
2022-11-04T14:10:46.727Z,98988.44
2022-11-04T14:13:56.938Z,99002.59
2022-11-04T14:16:42.580Z,99004.75
2022-11-04T14:19:55.767Z,99005.72
2022-11-04T14:22:30.509Z,99006.81
2022-11-04T14:24:58.591Z,99014.94
2022-11-04T14:27:31.604Z,99020.34
2022-11-04T14:29:59.416Z,99021.44
2022-11-04T14:32:28.447Z,99022.47
2022-11-04T14:35:00.269Z,99019.34
2022-11-04T14:37:29.762Z,99010.94
2022-11-04T14:39:59.002Z,99016.03
2022-11-04T14:42:46.697Z,99025.66
2022-11-04T14:45:18.116Z,99012.84
2022-11-04T14:47:49.071Z,98982.28
2022-11-04T14:50:19.245Z,99034.66
2022-11-04T14:52:48.360Z,99023.91
2022-11-04T14:55:16.944Z,99043.81
2022-11-04T14:57:46.523Z,99054.09
2022-11-04T15:00:31.710Z,99062.41
2022-11-04T15:03:57.524Z,99069.59
2022-11-04T15:06:05.884Z,99069.97
2022-11-04T15:08:37.638Z,99048.00
2022-11-04T15:11:13.909Z,99066.22
2022-11-04T15:13:49.890Z,99083.97
2022-11-04T15:16:19.337Z,99080.88
2022-11-04T15:18:47.268Z,99093.97
2022-11-04T15:21:14.948Z,99068.72
2022-11-04T15:23:45.018Z,99104.84
2022-11-04T15:26:23.872Z,99112.03
2022-11-04T15:28:57.403Z,99115.59
2022-11-04T15:31:25.905Z,99106.19
2022-11-04T15:33:55.058Z,99120.13
2022-11-04T15:36:23.790Z,99122.88
2022-11-04T15:38:54.457Z,99126.56
2022-11-04T15:41:40.736Z,99138.09
2022-11-04T15:44:18.309Z,99137.38
2022-11-04T15:46:52.881Z,99135.81
2022-11-04T15:49:26.079Z,99141.09
2022-11-04T15:51:55.606Z,99140.34
2022-11-04T15:54:26.823Z,99144.94
2022-11-04T15:56:56.195Z,99158.25
2022-11-04T15:59:27.216Z,99163.69
2022-11-04T16:01:55.293Z,99169.88
2022-11-04T16:04:24.869Z,99161.22
2022-11-04T16:07:22.205Z,99165.63
2022-11-04T16:09:51.020Z,99171.13
2022-11-04T16:12:26.895Z,99166.84
2022-11-04T16:14:56.348Z,99175.84
2022-11-04T16:17:24.282Z,99176.63
2022-11-04T16:19:53.511Z,99181.22
2022-11-04T16:22:25.020Z,99181.25
2022-11-04T16:24:52.991Z,99193.53
2022-11-04T16:27:22.066Z,99187.53
2022-11-04T16:30:02.620Z,99187.59
2022-11-04T16:32:31.864Z,99189.50
2022-11-04T16:35:01.871Z,99190.56
2022-11-04T16:37:30.233Z,99190.72
2022-11-04T16:39:58.155Z,99204.84
2022-11-04T16:42:25.870Z,99204.03
2022-11-04T16:45:04.111Z,99199.91
2022-11-04T16:47:32.177Z,99205.41
2022-11-04T16:50:13.500Z,99209.25
2022-11-04T16:52:44.163Z,99207.78
2022-11-04T16:55:15.939Z,99206.31
2022-11-04T16:57:45.021Z,99159.38
2022-11-04T17:00:22.680Z,99217.16
2022-11-04T17:02:51.260Z,99224.97
2022-11-04T17:05:19.142Z,99220.84
2022-11-04T17:07:53.697Z,99228.47
2022-11-04T17:10:25.403Z,99224.28
2022-11-04T17:12:53.151Z,99227.72
2022-11-04T17:15:22.498Z,99220.84
2022-11-04T17:17:50.663Z,99225.38
2022-11-04T17:20:18.650Z,99229.94
2022-11-04T17:22:46.924Z,99244.09
2022-11-04T17:25:17.247Z,99241.50
2022-11-04T17:27:45.038Z,99240.91
2022-11-04T17:30:19.132Z,99253.28
2022-11-04T17:32:48.164Z,99263.94
2022-11-04T17:35:16.520Z,99266.69
2022-11-04T17:37:44.337Z,99271.97
2022-11-04T17:40:13.814Z,99280.78
2022-11-04T17:42:59.374Z,99225.84
2022-11-04T17:45:28.267Z,99053.53
2022-11-04T17:47:57.482Z,99284.31
2022-11-04T17:50:25.332Z,99119.28
2022-11-04T17:52:53.085Z,99205.91
2022-11-04T17:55:27.155Z,99223.69
2022-11-04T17:57:55.512Z,99034.78
2022-11-04T18:06:20.423Z,99090.28
2022-11-04T18:08:48.444Z,99063.41
2022-11-04T18:11:36.825Z,99122.38
2022-11-04T18:14:03.885Z,99352.47
2022-11-04T18:16:32.338Z,99193.81
2022-11-04T18:19:02.350Z,99219.31
2022-11-04T18:21:32.635Z,99317.78
2022-11-04T18:24:00.706Z,99327.94
2022-11-04T18:26:28.931Z,99147.06
2022-11-04T18:28:57.147Z,99287.00
2022-11-04T18:31:27.008Z,99161.09
2022-11-04T18:33:54.897Z,99163.53
2022-11-04T18:36:22.804Z,99298.66
2022-11-04T18:38:52.476Z,98931.06
2022-11-04T18:41:20.615Z,99180.59
2022-11-04T18:43:48.711Z,99252.63
2022-11-04T18:46:17.390Z,99335.13
2022-11-04T18:48:49.124Z,99151.03
2022-11-04T18:51:17.419Z,99213.56
2022-11-04T18:53:45.436Z,99268.28
2022-11-04T18:56:15.544Z,99102.28
2022-11-04T18:58:45.079Z,99266.22
2022-11-04T19:01:17.295Z,99007.59
2022-11-04T19:03:45.418Z,99403.91
2022-11-04T19:06:14.683Z,99316.91
2022-11-04T19:08:46.622Z,99167.00
2022-11-04T19:11:18.124Z,99056.13
2022-11-04T19:13:56.014Z,98986.94
2022-11-04T19:16:24.241Z,99115.06
2022-11-04T19:18:55.299Z,99453.38
2022-11-04T19:21:24.310Z,99398.97
2022-11-04T19:23:52.214Z,99320.56
2022-11-04T19:26:22.711Z,99208.16
2022-11-04T19:28:51.267Z,99313.38
2022-11-04T19:31:20.682Z,99323.00
2022-11-04T19:33:48.691Z,99391.69
2022-11-04T19:36:17.773Z,99270.41
2022-11-04T19:38:45.984Z,99316.31
2022-11-04T19:41:34.536Z,99091.91
2022-11-04T19:44:03.838Z,99320.50
2022-11-04T19:46:31.876Z,99402.78
2022-11-04T19:48:59.919Z,99296.25
2022-11-04T19:51:32.007Z,99375.50
2022-11-04T19:54:00.492Z,99422.59
2022-11-04T19:56:30.689Z,99340.88
2022-11-04T19:59:06.183Z,99299.28
2022-11-04T20:01:36.840Z,99172.56
2022-11-04T20:04:05.308Z,99356.00
2022-11-04T20:06:34.104Z,99339.09
2022-11-04T20:09:05.734Z,98979.72
2022-11-04T20:11:34.445Z,99126.19
2022-11-04T20:14:07.561Z,99427.34
2022-11-04T20:16:39.542Z,99434.31
2022-11-04T20:19:07.434Z,99438.66
2022-11-04T20:21:36.151Z,99422.25
2022-11-04T20:24:05.100Z,99442.19
2022-11-04T20:26:33.208Z,99438.75
2022-11-04T20:29:01.139Z,99442.28
2022-11-04T20:31:29.900Z,99454.59
2022-11-04T20:33:58.986Z,99438.22
2022-11-04T20:36:27.638Z,99447.91
2022-11-04T20:38:59.088Z,99459.31
2022-11-04T20:41:27.099Z,99471.63
2022-11-04T20:43:55.821Z,99471.66
2022-11-04T20:46:24.502Z,99474.28
2022-11-04T20:48:52.358Z,99479.44
2022-11-04T20:51:22.719Z,99461.41
2022-11-04T20:53:55.777Z,99496.88
2022-11-04T20:56:24.462Z,99505.50
2022-11-04T20:58:57.693Z,99510.66
2022-11-04T21:01:27.982Z,99457.84
2022-11-04T21:03:55.921Z,99507.94
2022-11-04T21:06:40.216Z,99514.78
2022-11-04T21:09:08.845Z,99518.25
2022-11-04T21:11:38.930Z,99523.50
2022-11-04T21:14:06.934Z,99522.59
2022-11-04T21:16:35.544Z,99538.19
2022-11-04T21:19:03.359Z,99535.50
2022-11-04T21:21:32.465Z,99537.16
2022-11-04T21:24:02.779Z,99542.38
2022-11-04T21:26:31.326Z,99544.06
2022-11-04T21:29:01.327Z,99541.44
2022-11-04T21:31:29.272Z,99548.47
2022-11-04T21:33:57.008Z,99557.13
2022-11-04T21:36:24.649Z,99553.69
2022-11-04T21:38:52.926Z,99555.41
2022-11-04T21:41:24.331Z,99561.53
2022-11-04T21:43:54.748Z,99565.91
2022-11-04T21:46:22.560Z,99570.25
2022-11-04T21:48:50.212Z,99571.13
2022-11-04T21:51:18.870Z,99559.91
2022-11-04T21:53:46.559Z,99578.06
2022-11-04T21:56:15.114Z,99580.66
2022-11-04T21:58:44.308Z,99577.13
2022-11-04T22:01:12.936Z,99586.66
2022-11-04T22:03:40.725Z,99585.69
2022-11-04T22:06:09.597Z,99590.91
2022-11-04T22:08:37.529Z,99592.66
2022-11-04T22:11:09.054Z,99605.72
2022-11-04T22:13:36.731Z,99596.13
2022-11-04T22:16:12.685Z,99602.97
2022-11-04T22:18:40.317Z,99593.41
2022-11-04T22:21:10.677Z,99599.44
2022-11-04T22:23:38.626Z,99606.34
2022-11-04T22:26:07.238Z,99599.28
2022-11-04T22:28:35.244Z,99554.41
2022-11-04T22:31:07.540Z,99604.56
2022-11-04T22:33:37.663Z,99611.53
2022-11-04T22:36:06.009Z,99613.25
2022-11-04T22:38:33.813Z,99602.81
2022-11-04T22:41:01.837Z,99588.19
2022-11-04T22:43:29.527Z,99605.44
2022-11-04T22:45:57.620Z,99595.88
2022-11-04T22:48:25.364Z,99601.19
2022-11-04T22:50:57.196Z,99603.91
2022-11-04T22:53:24.948Z,99604.84
2022-11-04T22:55:52.702Z,99617.19
2022-11-04T22:58:20.424Z,99613.81
2022-11-04T23:00:48.167Z,99604.34
2022-11-04T23:03:16.674Z,99620.97
2022-11-04T23:05:44.669Z,99615.75
2022-11-04T23:08:13.698Z,99620.25
2022-11-04T23:10:58.799Z,99627.41
2022-11-04T23:13:44.107Z,99629.31
2022-11-04T23:16:29.941Z,99629.53
2022-11-04T23:18:57.680Z,99628.81
2022-11-04T23:21:42.886Z,99635.06
2022-11-04T23:24:29.341Z,99638.75
2022-11-04T23:26:57.331Z,99635.38
2022-11-04T23:29:42.267Z,99638.03
2022-11-04T23:32:09.932Z,99646.03
2022-11-04T23:34:55.228Z,99647.00
2022-11-04T23:37:22.857Z,99644.47
2022-11-04T23:39:51.975Z,99652.44
2022-11-04T23:47:46.581Z,99677.16
2022-11-04T23:50:32.059Z,99652.00
2022-11-04T23:53:18.081Z,99646.84
2022-11-04T23:56:03.790Z,99660.00
2022-11-04T23:58:49.157Z,99660.09
